createdAt,value
2018-04-14T00:00:35.034Z,7.05
2018-04-14T00:01:35.012Z,7.01
2018-04-14T00:02:35.016Z,6.89
2018-04-14T00:03:34.998Z,6.95
2018-04-14T00:04:35.001Z,6.94
2018-04-14T00:05:35.003Z,7.05
2018-04-14T00:06:34.987Z,6.97
2018-04-14T00:07:34.972Z,6.95
2018-04-14T00:08:34.979Z,6.94
2018-04-14T00:09:34.962Z,6.90
2018-04-14T00:10:34.955Z,6.98
2018-04-14T00:11:34.946Z,6.97
2018-04-14T00:12:34.949Z,6.95
2018-04-14T00:13:34.934Z,6.99
2018-04-14T00:14:34.920Z,6.99
2018-04-14T00:15:34.913Z,7.01
2018-04-14T00:16:34.931Z,6.86
2018-04-14T00:17:34.897Z,6.94
2018-04-14T00:18:34.896Z,6.90
2018-04-14T00:19:34.877Z,6.99
2018-04-14T00:20:34.887Z,7.01
2018-04-14T00:21:34.872Z,6.95
2018-04-14T00:22:34.867Z,6.94
2018-04-14T00:23:34.851Z,7.07
2018-04-14T00:24:34.873Z,6.99
2018-04-14T00:25:34.849Z,7.05
2018-04-14T00:26:34.848Z,7.08
2018-04-14T00:27:34.840Z,7.12
2018-04-14T00:28:34.818Z,7.04
2018-04-14T00:29:34.823Z,6.99
2018-04-14T00:30:34.810Z,6.99
2018-04-14T00:31:34.807Z,6.99
2018-04-14T00:32:34.790Z,6.90
2018-04-14T00:33:34.787Z,6.95
2018-04-14T00:34:34.779Z,6.90
2018-04-14T00:35:34.782Z,6.80
2018-04-14T00:36:34.766Z,6.73
2018-04-14T00:37:34.764Z,6.72
2018-04-14T00:38:34.763Z,6.73
2018-04-14T00:39:34.766Z,6.72
2018-04-14T00:40:34.750Z,6.50
2018-04-14T00:41:34.741Z,6.53
2018-04-14T00:42:34.726Z,6.40
2018-04-14T00:43:34.727Z,6.44
2018-04-14T00:44:34.709Z,6.38
2018-04-14T00:45:34.711Z,6.38
2018-04-14T00:46:34.706Z,6.35
2018-04-14T00:47:34.696Z,6.29
2018-04-14T00:48:34.693Z,6.33
2018-04-14T00:49:34.673Z,6.38
2018-04-14T00:50:34.678Z,6.26
2018-04-14T00:51:34.662Z,6.30
2018-04-14T00:52:34.670Z,6.16
2018-04-14T00:53:34.657Z,6.21
2018-04-14T00:54:34.639Z,6.18
2018-04-14T00:55:34.629Z,6.18
2018-04-14T00:56:34.629Z,6.25
2018-04-14T00:57:34.622Z,6.30
2018-04-14T00:58:34.609Z,6.28
2018-04-14T00:59:34.600Z,6.30
2018-04-14T01:00:34.602Z,6.26
2018-04-14T01:01:34.644Z,6.21
2018-04-14T01:02:34.583Z,6.11
2018-04-14T01:03:34.587Z,6.18
2018-04-14T01:04:34.559Z,6.07
2018-04-14T01:05:34.563Z,6.03
2018-04-14T01:06:34.552Z,5.95
2018-04-14T01:07:34.555Z,5.92
2018-04-14T01:08:34.533Z,5.95
2018-04-14T01:09:34.524Z,5.91
2018-04-14T01:10:34.525Z,5.95
2018-04-14T01:11:34.537Z,6.07
2018-04-14T01:12:34.513Z,6.03
2018-04-14T01:13:34.507Z,6.35
2018-04-14T01:14:34.488Z,6.35
2018-04-14T01:15:34.500Z,6.44
2018-04-14T01:16:34.484Z,6.44
2018-04-14T01:17:34.481Z,6.40
2018-04-14T01:18:34.469Z,6.41
2018-04-14T01:19:34.453Z,6.40
2018-04-14T01:20:34.456Z,6.40
2018-04-14T01:21:34.438Z,6.33
2018-04-14T01:22:34.434Z,6.38
2018-04-14T01:23:34.439Z,6.28
2018-04-14T01:24:34.428Z,6.14
2018-04-14T01:25:34.415Z,6.07
2018-04-14T01:26:34.407Z,6.07
2018-04-14T01:27:34.421Z,6.01
2018-04-14T01:28:34.396Z,5.98
2018-04-14T01:29:34.380Z,6.06
2018-04-14T02:01:54.744Z,6.09
2018-04-14T02:02:54.690Z,5.98
2018-04-14T02:04:47.648Z,5.95
2018-04-14T02:05:47.611Z,5.91
2018-04-14T02:07:40.550Z,5.93
2018-04-14T02:08:40.533Z,5.92
2018-04-14T02:10:33.457Z,5.96
2018-04-14T02:11:33.429Z,5.83
2018-04-14T02:12:33.410Z,5.77
2018-04-14T02:13:33.408Z,5.78
2018-04-14T02:14:33.395Z,5.73
2018-04-14T02:15:33.385Z,5.73
2018-04-14T02:16:33.382Z,5.68
2018-04-14T02:17:33.365Z,5.77
2018-04-14T02:18:33.353Z,5.81
2018-04-14T02:19:33.343Z,5.73
2018-04-14T02:20:33.334Z,5.74
2018-04-14T02:21:33.334Z,5.74
2018-04-14T02:22:33.341Z,5.68
2018-04-14T02:23:33.312Z,5.77
2018-04-14T02:24:33.297Z,5.71
2018-04-14T02:25:33.290Z,5.64
2018-04-14T02:26:33.281Z,5.60
2018-04-14T02:27:33.284Z,5.56
2018-04-14T02:28:33.278Z,5.56
2018-04-14T02:29:33.252Z,5.67
2018-04-14T02:30:33.254Z,5.67
2018-04-14T02:31:33.245Z,5.56
2018-04-14T02:32:33.248Z,5.71
2018-04-14T02:33:33.229Z,5.75
2018-04-14T02:34:33.215Z,5.75
2018-04-14T02:35:33.211Z,5.70
2018-04-14T02:36:33.195Z,5.73
2018-04-14T02:37:33.201Z,5.77
2018-04-14T02:38:33.191Z,5.73
2018-04-14T02:39:33.177Z,5.82
2018-04-14T02:40:33.174Z,5.81
2018-04-14T02:41:33.164Z,5.75
2018-04-14T02:42:33.158Z,5.71
2018-04-14T02:43:33.151Z,5.63
2018-04-14T02:44:33.138Z,5.64
2018-04-14T02:45:33.135Z,5.59
2018-04-14T02:46:33.127Z,5.49
2018-04-14T02:47:33.121Z,5.52
2018-04-14T02:48:33.108Z,5.57
2018-04-14T02:49:33.093Z,5.57
2018-04-14T02:50:33.093Z,5.57
2018-04-14T02:51:33.089Z,5.50
2018-04-14T02:52:33.091Z,5.41
2018-04-14T02:53:33.077Z,5.48
2018-04-14T02:54:33.069Z,5.37
2018-04-14T02:55:33.050Z,5.40
2018-04-14T02:56:33.051Z,5.35
2018-04-14T02:57:33.038Z,5.37
2018-04-14T02:58:33.031Z,5.34
2018-04-14T02:59:33.031Z,5.41
2018-04-14T03:00:33.019Z,5.35
2018-04-14T03:01:33.004Z,5.37
2018-04-14T03:02:33.002Z,5.34
2018-04-14T03:03:32.995Z,5.40
2018-04-14T03:04:32.982Z,5.50
2018-04-14T03:05:32.979Z,5.49
2018-04-14T03:06:32.965Z,5.41
2018-04-14T03:07:32.955Z,5.48
2018-04-14T03:08:32.951Z,5.48
2018-04-14T03:09:32.943Z,5.45
2018-04-14T03:10:32.938Z,5.49
2018-04-14T03:11:32.938Z,5.49
2018-04-14T03:12:32.928Z,5.68
2018-04-14T03:13:32.915Z,5.68
2018-04-14T03:14:32.904Z,5.67
2018-04-14T03:15:32.906Z,5.64
2018-04-14T03:16:32.891Z,5.64
2018-04-14T03:17:32.885Z,5.55
2018-04-14T03:18:32.872Z,5.49
2018-04-14T03:19:32.858Z,5.49
2018-04-14T03:20:32.855Z,5.38
2018-04-14T03:21:32.851Z,5.34
2018-04-14T03:22:32.841Z,5.45
2018-04-14T03:23:32.830Z,5.38
2018-04-14T03:24:32.826Z,5.16
2018-04-14T03:25:32.826Z,5.30
2018-04-14T03:26:32.820Z,5.28
2018-04-14T03:27:32.804Z,5.34
2018-04-14T03:28:32.803Z,5.40
2018-04-14T03:29:32.785Z,5.38
2018-04-14T03:30:32.773Z,5.35
2018-04-14T03:31:32.773Z,5.48
2018-04-14T03:32:32.775Z,5.40
2018-04-14T03:33:32.753Z,5.32
2018-04-14T03:34:32.741Z,5.38
2018-04-14T03:35:32.747Z,5.35
2018-04-14T03:36:32.739Z,5.35
2018-04-14T03:37:32.728Z,5.28
2018-04-14T03:38:32.721Z,5.31
2018-04-14T03:39:32.706Z,5.28
2018-04-14T03:40:32.701Z,5.28
2018-04-14T03:41:32.693Z,5.25
2018-04-14T03:42:32.699Z,5.45
2018-04-14T03:43:32.683Z,5.45
2018-04-14T03:44:32.673Z,5.48
2018-04-14T03:45:32.672Z,5.50
2018-04-14T03:46:32.656Z,5.48
2018-04-14T03:47:32.651Z,5.56
2018-04-14T03:48:32.641Z,5.53
2018-04-14T03:49:32.634Z,5.55
2018-04-14T03:50:32.626Z,5.66
2018-04-14T03:51:32.604Z,5.70
2018-04-14T03:52:32.604Z,5.75
2018-04-14T03:53:32.605Z,5.68
2018-04-14T03:54:32.589Z,5.70
2018-04-14T03:55:32.586Z,5.88
2018-04-14T03:56:32.585Z,5.89
2018-04-14T03:57:32.570Z,6.09
2018-04-14T03:58:32.561Z,5.93
2018-04-14T03:59:32.551Z,6.03
2018-04-14T04:00:32.541Z,6.07
2018-04-14T04:01:32.538Z,6.07
2018-04-14T04:02:32.527Z,6.14
2018-04-14T04:03:32.517Z,6.16
2018-04-14T04:04:32.515Z,6.21
2018-04-14T04:05:32.501Z,6.22
2018-04-14T04:06:32.500Z,6.11
2018-04-14T04:07:32.494Z,5.98
2018-04-14T04:08:32.487Z,5.95
2018-04-14T04:09:32.473Z,5.85
2018-04-14T04:10:32.464Z,5.68
2018-04-14T04:11:32.494Z,5.81
2018-04-14T04:12:32.447Z,5.64
2018-04-14T04:13:32.448Z,5.56
2018-04-14T04:14:32.437Z,5.41
2018-04-14T04:15:32.431Z,5.35
2018-04-14T04:16:32.421Z,5.31
2018-04-14T04:17:32.412Z,5.14
2018-04-14T04:18:32.399Z,5.16
2018-04-14T04:19:32.402Z,5.09
2018-04-14T04:20:32.395Z,5.05
2018-04-14T04:21:32.376Z,4.96
2018-04-14T04:22:32.437Z,4.96
2018-04-14T04:23:32.366Z,4.99
2018-04-14T04:24:32.356Z,4.92
2018-04-14T04:25:32.350Z,4.92
2018-04-14T04:26:32.338Z,4.83
2018-04-14T04:27:32.333Z,4.79
2018-04-14T04:28:32.333Z,4.79
2018-04-14T04:29:32.319Z,4.83
2018-04-14T04:30:32.324Z,4.75
2018-04-14T04:31:32.298Z,4.79
2018-04-14T04:32:32.296Z,4.76
2018-04-14T04:33:32.274Z,4.79
2018-04-14T04:34:32.274Z,4.65
2018-04-14T04:35:32.267Z,4.62
2018-04-14T04:36:32.248Z,4.61
2018-04-14T04:37:32.247Z,4.59
2018-04-14T04:38:32.260Z,4.61
2018-04-14T04:39:32.228Z,4.59
2018-04-14T04:40:32.231Z,4.62
2018-04-14T04:41:32.227Z,4.64
2018-04-14T04:42:32.210Z,4.64
2018-04-14T04:43:32.203Z,4.79
2018-04-14T04:44:32.193Z,4.79
2018-04-14T04:45:32.188Z,4.73
2018-04-14T04:46:32.171Z,4.70
2018-04-14T04:47:32.166Z,4.73
2018-04-14T04:48:32.167Z,4.88
2018-04-14T04:49:32.157Z,4.88
2018-04-14T04:50:32.149Z,4.84
2018-04-14T04:51:32.152Z,4.91
2018-04-14T04:52:32.138Z,4.91
2018-04-14T04:53:32.117Z,5.01
2018-04-14T04:54:32.115Z,5.01
2018-04-14T04:55:32.096Z,5.05
2018-04-14T04:56:32.092Z,5.25
2018-04-14T04:57:32.087Z,5.40
2018-04-14T04:58:32.112Z,5.49
2018-04-14T04:59:32.070Z,5.66
2018-04-14T05:00:32.066Z,5.81
2018-04-14T05:01:32.051Z,5.77
2018-04-14T05:02:32.038Z,5.83
2018-04-14T05:03:32.043Z,5.83
2018-04-14T05:04:32.032Z,5.86
2018-04-14T05:05:32.017Z,5.83
2018-04-14T05:06:32.011Z,5.71
2018-04-14T05:07:32.006Z,5.70
2018-04-14T05:08:32.010Z,5.73
2018-04-14T05:09:31.999Z,5.88
2018-04-14T05:10:31.980Z,5.77
2018-04-14T05:11:31.990Z,5.85
2018-04-14T05:12:31.962Z,5.82
2018-04-14T05:13:31.960Z,5.93
2018-04-14T05:14:31.950Z,5.95
2018-04-14T05:15:31.954Z,5.92
2018-04-14T05:16:31.936Z,6.03
2018-04-14T05:17:31.930Z,6.10
2018-04-14T05:18:31.927Z,6.06
2018-04-14T05:19:31.915Z,6.09
2018-04-14T05:20:31.901Z,6.09
2018-04-14T05:21:31.896Z,6.07
2018-04-14T05:22:31.892Z,6.18
2018-04-14T05:23:31.889Z,6.22
2018-04-14T05:24:31.885Z,6.16
2018-04-14T05:25:31.879Z,6.28
2018-04-14T05:26:31.865Z,6.33
2018-04-14T05:27:31.854Z,6.41
2018-04-14T05:28:31.858Z,6.41
2018-04-14T05:29:31.854Z,6.46
2018-04-14T05:30:31.846Z,6.59
2018-04-14T05:31:31.822Z,6.72
2018-04-14T05:32:31.826Z,6.73
2018-04-14T05:33:31.826Z,6.83
2018-04-14T05:34:31.826Z,6.81
2018-04-14T05:35:31.800Z,6.95
2018-04-14T05:36:31.794Z,7.01
2018-04-14T05:37:31.794Z,7.08
2018-04-14T05:38:31.779Z,7.12
2018-04-14T05:39:31.778Z,7.07
2018-04-14T05:40:31.764Z,7.20
2018-04-14T05:41:31.767Z,7.35
2018-04-14T05:42:31.753Z,7.32
2018-04-14T05:43:31.755Z,7.34
2018-04-14T05:44:31.740Z,7.31
2018-04-14T05:45:31.742Z,7.35
2018-04-14T05:46:31.728Z,7.41
2018-04-14T05:47:31.735Z,7.49
2018-04-14T05:48:31.725Z,7.56
2018-04-14T05:49:31.719Z,7.62
2018-04-14T05:50:31.706Z,7.67
2018-04-14T05:51:31.694Z,7.75
2018-04-14T05:52:31.696Z,7.82
2018-04-14T05:53:31.685Z,7.90
2018-04-14T05:54:31.683Z,7.90
2018-04-14T05:55:31.670Z,7.99
2018-04-14T05:56:31.678Z,8.03
2018-04-14T05:57:31.684Z,8.18
2018-04-14T05:58:31.699Z,8.11
2018-04-14T05:59:31.700Z,8.28
2018-04-14T06:00:31.668Z,8.33
2018-04-14T06:01:31.648Z,8.45
2018-04-14T06:02:31.635Z,8.48
2018-04-14T06:03:31.633Z,8.71
2018-04-14T06:04:32.517Z,8.76
2018-04-14T06:05:31.644Z,8.76
2018-04-14T06:06:31.647Z,8.81
2018-04-14T06:07:31.614Z,8.78
2018-04-14T06:08:31.619Z,8.87
2018-04-14T06:09:31.611Z,8.96
2018-04-14T06:10:31.604Z,8.97
2018-04-14T06:11:31.606Z,8.99
2018-04-14T06:12:31.596Z,8.94
2018-04-14T06:13:31.589Z,9.02
2018-04-14T06:14:31.585Z,9.12
2018-04-14T06:15:31.575Z,9.04
2018-04-14T06:16:31.574Z,9.13
2018-04-14T06:17:31.578Z,9.18
2018-04-14T06:18:31.574Z,9.24
2018-04-14T06:19:31.569Z,9.39
2018-04-14T06:20:31.598Z,9.46
2018-04-14T06:21:31.545Z,9.48
2018-04-14T06:22:31.552Z,9.49
2018-04-14T06:23:31.545Z,9.83
2018-04-14T06:24:31.540Z,9.96
2018-04-14T06:25:31.537Z,10.12
2018-04-14T06:26:31.536Z,10.28
2018-04-14T06:27:31.536Z,10.52
2018-04-14T06:28:31.528Z,10.53
2018-04-14T06:29:31.520Z,10.55
2018-04-14T06:30:31.517Z,10.89
2018-04-14T06:31:31.519Z,11.11
2018-04-14T06:32:31.515Z,11.20
2018-04-14T06:33:31.510Z,11.32
2018-04-14T06:34:31.507Z,11.64
2018-04-14T06:35:31.495Z,12.01
2018-04-14T06:36:31.496Z,12.05
2018-04-14T06:37:31.495Z,12.01
2018-04-14T06:38:31.497Z,11.90
2018-04-14T06:39:31.490Z,11.75
2018-04-14T06:40:31.507Z,11.93
2018-04-14T06:41:31.484Z,12.12
2018-04-14T06:42:31.488Z,12.26
2018-04-14T06:43:31.478Z,11.87
2018-04-14T06:44:31.469Z,12.01
2018-04-14T06:45:31.468Z,11.80
2018-04-14T06:46:31.468Z,11.49
2018-04-14T06:47:31.469Z,11.59
2018-04-14T06:48:31.458Z,11.89
2018-04-14T06:49:31.469Z,12.01
2018-04-14T06:50:31.475Z,12.26
2018-04-14T06:51:31.466Z,12.20
2018-04-14T06:52:31.453Z,12.21
2018-04-14T06:53:31.444Z,12.33
2018-04-14T06:54:31.467Z,12.62
2018-04-14T06:55:31.451Z,13.04
2018-04-14T06:56:31.444Z,13.27
2018-04-14T06:57:31.472Z,13.56
2018-04-14T06:58:31.441Z,13.40
2018-04-14T06:59:31.450Z,13.20
2018-04-14T07:00:31.438Z,13.41
2018-04-14T07:01:31.441Z,13.51
2018-04-14T07:02:31.423Z,13.43
2018-04-14T07:03:31.437Z,13.40
2018-04-14T07:04:31.446Z,13.80
2018-04-14T07:05:31.425Z,13.87
2018-04-14T07:06:31.426Z,13.94
2018-04-14T07:07:31.426Z,14.38
2018-04-14T07:08:31.460Z,14.94
2018-04-14T07:09:31.421Z,15.24
2018-04-14T07:10:31.421Z,15.33
2018-04-14T07:11:31.416Z,15.13
2018-04-14T07:12:31.411Z,15.05
2018-04-14T07:13:31.420Z,14.86
2018-04-14T07:14:31.430Z,15.06
2018-04-14T07:15:31.408Z,14.88
2018-04-14T07:16:31.410Z,14.90
2018-04-14T07:17:31.410Z,14.17
2018-04-14T07:18:31.409Z,14.47
2018-04-14T07:19:31.415Z,14.62
2018-04-14T07:20:31.435Z,14.53
2018-04-14T07:21:31.424Z,14.90
2018-04-14T07:22:31.405Z,14.86
2018-04-14T07:23:31.415Z,14.80
2018-04-14T07:24:31.409Z,15.27
2018-04-14T07:25:31.409Z,15.79
2018-04-14T07:26:31.410Z,15.92
2018-04-14T07:27:31.411Z,15.75
2018-04-14T07:28:31.405Z,15.85
2018-04-14T07:29:31.410Z,16.25
2018-04-14T07:30:31.402Z,16.45
2018-04-14T07:31:31.421Z,16.12
2018-04-14T07:32:31.409Z,15.92
2018-04-14T07:33:31.410Z,15.61
2018-04-14T07:34:31.416Z,16.40
2018-04-14T07:35:31.423Z,16.95
2018-04-14T07:36:31.435Z,17.35
2018-04-14T07:37:31.427Z,17.69
2018-04-14T07:38:31.434Z,17.82
2018-04-14T07:39:31.446Z,17.67
2018-04-14T07:40:31.447Z,17.79
2018-04-14T07:41:31.444Z,17.43
2018-04-14T07:42:31.459Z,17.57
2018-04-14T07:43:31.473Z,17.73
2018-04-14T07:44:31.464Z,17.99
2018-04-14T07:45:31.457Z,18.33
2018-04-14T07:46:31.476Z,18.86
2018-04-14T07:47:31.485Z,19.36
2018-04-14T07:48:31.500Z,19.36
2018-04-14T07:49:31.515Z,19.46
2018-04-14T07:50:31.520Z,18.94
2018-04-14T07:51:31.512Z,18.52
2018-04-14T07:52:31.528Z,18.47
2018-04-14T07:53:31.527Z,18.59
2018-04-14T07:54:31.532Z,19.39
2018-04-14T07:55:31.552Z,19.73
2018-04-14T07:56:31.545Z,20.10
2018-04-14T07:57:31.563Z,19.51
2018-04-14T07:58:31.583Z,19.72
2018-04-14T07:59:31.580Z,19.84
2018-04-14T08:00:31.593Z,19.29
2018-04-14T08:01:31.601Z,18.90
2018-04-14T08:02:31.609Z,19.28
2018-04-14T08:03:31.617Z,19.13
2018-04-14T08:04:31.639Z,19.75
2018-04-14T08:05:31.634Z,18.86
2018-04-14T08:06:31.648Z,18.92
2018-04-14T08:07:31.659Z,19.53
2018-04-14T08:08:31.678Z,20.18
2018-04-14T08:09:31.701Z,20.74
2018-04-14T08:10:31.690Z,19.97
2018-04-14T08:11:31.706Z,19.73
2018-04-14T08:12:31.721Z,19.25
2018-04-14T08:13:31.728Z,20.47
2018-04-14T08:14:31.753Z,21.02
2018-04-14T08:15:31.749Z,20.89
2018-04-14T08:16:31.765Z,20.50
2018-04-14T08:17:31.769Z,20.69
2018-04-14T08:18:31.775Z,20.15
2018-04-14T08:19:31.793Z,20.65
2018-04-14T08:20:31.810Z,20.54
2018-04-14T08:21:31.835Z,19.75
2018-04-14T08:22:31.834Z,20.72
2018-04-14T08:23:31.852Z,20.80
2018-04-14T08:24:31.861Z,21.46
2018-04-14T08:25:31.875Z,19.79
2018-04-14T08:26:31.872Z,19.80
2018-04-14T08:27:31.891Z,19.97
2018-04-14T08:28:31.914Z,21.35
2018-04-14T08:29:31.921Z,22.54
2018-04-14T08:30:31.930Z,22.84
2018-04-14T08:31:31.944Z,22.94
2018-04-14T08:32:31.968Z,22.43
2018-04-14T08:33:32.015Z,22.77
2018-04-14T08:34:32.017Z,21.76
2018-04-14T08:35:31.997Z,21.95
2018-04-14T08:36:32.014Z,22.37
2018-04-14T08:37:32.088Z,21.20
2018-04-14T08:38:32.038Z,22.35
2018-04-14T08:39:32.056Z,22.25
2018-04-14T08:40:32.066Z,22.93
2018-04-14T08:41:32.076Z,23.23
2018-04-14T08:42:32.093Z,23.29
2018-04-14T08:43:32.110Z,23.71
2018-04-14T08:44:32.127Z,24.17
2018-04-14T08:45:32.137Z,22.92
2018-04-14T08:46:32.151Z,22.25
2018-04-14T08:47:32.164Z,22.01
2018-04-14T08:48:32.191Z,21.09
2018-04-14T08:49:32.196Z,21.60
2018-04-14T08:50:32.205Z,22.35
2018-04-14T08:51:32.223Z,23.23
2018-04-14T08:52:32.242Z,24.05
2018-04-14T08:53:32.255Z,24.52
2018-04-14T08:54:32.261Z,24.80
2018-04-14T08:55:32.272Z,24.63
2018-04-14T08:56:32.294Z,23.68
2018-04-14T08:57:32.311Z,23.05
2018-04-14T08:58:32.320Z,22.59
2018-04-14T08:59:32.345Z,22.35
2018-04-14T09:00:32.407Z,22.67
2018-04-14T09:01:32.369Z,23.02
2018-04-14T09:02:32.427Z,22.27
2018-04-14T09:03:32.406Z,22.49
2018-04-14T09:04:32.422Z,24.04
2018-04-14T09:05:32.428Z,24.32
2018-04-14T09:06:32.449Z,24.88
2018-04-14T09:07:32.456Z,24.38
2018-04-14T09:08:32.474Z,24.82
2018-04-14T09:09:32.502Z,24.76
2018-04-14T09:10:32.500Z,24.35
2018-04-14T09:11:32.528Z,24.69
2018-04-14T09:12:32.546Z,24.98
2018-04-14T09:13:32.549Z,25.50
2018-04-14T09:14:32.609Z,25.86
2018-04-14T09:15:32.579Z,25.82
2018-04-14T09:16:32.615Z,25.37
2018-04-14T09:17:32.625Z,24.88
2018-04-14T09:18:32.670Z,24.64
2018-04-14T09:19:32.655Z,24.91
2018-04-14T09:20:32.673Z,24.38
2018-04-14T09:21:32.701Z,24.61
2018-04-14T09:22:32.705Z,24.32
2018-04-14T09:23:32.721Z,23.34
2018-04-14T09:24:32.757Z,23.23
2018-04-14T09:25:32.778Z,24.17
2018-04-14T09:26:32.778Z,23.80
2018-04-14T09:27:32.792Z,24.45
2018-04-14T09:28:32.808Z,25.43
2018-04-14T09:29:32.824Z,24.54
2018-04-14T09:30:32.843Z,24.26
2018-04-14T09:31:32.846Z,23.94
2018-04-14T09:32:32.865Z,23.60
2018-04-14T09:33:32.885Z,24.26
2018-04-14T09:34:32.908Z,23.71
2018-04-14T09:35:32.942Z,24.47
2018-04-14T09:36:32.964Z,24.44
2018-04-14T09:37:32.957Z,23.23
2018-04-14T09:38:32.968Z,23.43
2018-04-14T09:39:32.988Z,23.65
2018-04-14T09:40:33.008Z,23.94
2018-04-14T09:41:33.027Z,23.77
2018-04-14T09:42:33.052Z,24.22
2018-04-14T09:43:33.063Z,24.04
2018-04-14T09:44:33.080Z,24.27
2018-04-14T09:45:33.101Z,24.67
2018-04-14T09:46:33.123Z,25.61
2018-04-14T09:47:33.150Z,25.37
2018-04-14T09:48:33.145Z,24.50
2018-04-14T09:49:33.169Z,24.98
2018-04-14T09:50:33.197Z,25.46
2018-04-14T09:51:33.197Z,25.35
2018-04-14T09:52:33.223Z,24.34
2018-04-14T09:53:33.238Z,23.67
2018-04-14T09:54:33.264Z,24.02
2018-04-14T09:55:33.283Z,24.54
2018-04-14T09:56:33.289Z,24.29
2018-04-14T09:57:33.313Z,23.32
2018-04-14T09:58:33.321Z,23.79
2018-04-14T09:59:33.353Z,24.31
2018-04-14T10:00:33.360Z,24.49
2018-04-14T10:01:33.369Z,24.32
2018-04-14T10:02:33.388Z,24.52
2018-04-14T10:03:33.408Z,24.41
2018-04-14T10:04:33.415Z,23.92
2018-04-14T10:05:33.441Z,23.34
2018-04-14T10:06:33.456Z,23.68
2018-04-14T10:07:33.476Z,23.55
2018-04-14T10:08:33.490Z,23.92
2018-04-14T10:09:33.518Z,23.70
2018-04-14T10:10:33.554Z,23.53
2018-04-14T10:11:33.534Z,23.23
2018-04-14T10:12:33.551Z,23.01
2018-04-14T10:13:33.608Z,22.56
2018-04-14T10:14:33.584Z,21.26
2018-04-14T10:15:33.616Z,21.34
2018-04-14T10:16:33.621Z,22.22
2018-04-14T10:17:33.634Z,21.97
2018-04-14T10:18:33.710Z,21.88
2018-04-14T10:19:33.658Z,22.57
2018-04-14T10:20:33.669Z,21.51
2018-04-14T10:21:33.683Z,21.30
2018-04-14T10:22:33.710Z,20.93
2018-04-14T10:23:33.744Z,20.62
2018-04-14T10:24:33.792Z,20.91
2018-04-14T10:25:33.751Z,21.32
2018-04-14T10:26:33.760Z,21.91
2018-04-14T10:27:33.780Z,22.29
2018-04-14T10:28:33.786Z,23.05
2018-04-14T10:29:33.824Z,23.46
2018-04-14T10:30:33.819Z,23.05
2018-04-14T10:31:33.836Z,23.82
2018-04-14T10:32:33.852Z,23.49
2018-04-14T10:33:33.884Z,23.12
2018-04-14T10:34:33.884Z,23.26
2018-04-14T10:35:33.895Z,21.79
2018-04-14T10:36:33.912Z,21.53
2018-04-14T10:37:33.924Z,21.75
2018-04-14T10:38:33.959Z,22.09
2018-04-14T10:39:33.951Z,22.09
2018-04-14T10:40:33.965Z,22.17
2018-04-14T10:41:34.008Z,21.98
2018-04-14T10:42:33.990Z,22.19
2018-04-14T10:43:34.010Z,22.35
2018-04-14T10:44:34.022Z,21.64
2018-04-14T10:45:34.031Z,22.02
2018-04-14T10:46:34.055Z,21.97
2018-04-14T10:47:34.065Z,22.35
2018-04-14T10:48:34.068Z,22.90
2018-04-14T10:49:34.090Z,23.57
2018-04-14T10:50:34.101Z,23.86
2018-04-14T10:51:34.116Z,24.07
2018-04-14T10:52:34.142Z,22.56
2018-04-14T10:53:34.187Z,22.14
2018-04-14T10:54:34.153Z,22.12
2018-04-14T10:55:34.194Z,22.02
2018-04-14T10:56:34.237Z,22.20
2018-04-14T10:57:34.214Z,22.01
2018-04-14T10:58:34.226Z,22.23
2018-04-14T10:59:34.228Z,22.13
2018-04-14T11:00:34.254Z,21.44
2018-04-14T11:01:34.247Z,21.59
2018-04-14T11:02:34.256Z,21.27
2018-04-14T11:03:34.280Z,21.95
2018-04-14T11:04:34.295Z,22.43
2018-04-14T11:05:34.309Z,22.35
2018-04-14T11:06:34.325Z,21.82
2018-04-14T11:07:34.336Z,22.31
2018-04-14T11:08:34.354Z,22.35
2018-04-14T11:09:34.359Z,22.75
2018-04-14T11:10:34.366Z,21.97
2018-04-14T11:11:34.403Z,22.56
2018-04-14T11:12:34.421Z,22.10
2018-04-14T11:13:34.419Z,21.50
2018-04-14T11:14:34.446Z,22.28
2018-04-14T11:15:34.445Z,23.22
2018-04-14T11:16:34.458Z,22.38
2018-04-14T11:17:34.489Z,21.98
2018-04-14T11:18:34.488Z,22.90
2018-04-14T11:19:34.502Z,23.82
2018-04-14T11:20:34.551Z,24.41
2018-04-14T11:21:34.591Z,24.73
2018-04-14T11:22:34.556Z,24.14
2018-04-14T11:23:34.567Z,23.53
2018-04-14T11:24:34.599Z,22.90
2018-04-14T11:25:34.592Z,22.37
2018-04-14T11:26:34.619Z,22.64
2018-04-14T11:27:34.628Z,22.93
2018-04-14T11:28:34.634Z,23.22
2018-04-14T11:29:34.672Z,22.97
2018-04-14T11:30:34.680Z,22.94
2018-04-14T11:31:34.696Z,23.04
2018-04-14T11:32:34.708Z,22.75
2018-04-14T11:33:34.716Z,22.99
2018-04-14T11:34:34.745Z,22.71
2018-04-14T11:35:34.753Z,22.44
2018-04-14T11:36:34.765Z,21.98
2018-04-14T11:37:34.776Z,21.71
2018-04-14T11:38:34.791Z,21.75
2018-04-14T11:39:34.833Z,22.35
2018-04-14T11:40:34.822Z,22.49
2018-04-14T11:41:34.842Z,23.27
2018-04-14T11:42:34.858Z,23.32
2018-04-14T11:43:34.870Z,23.53
2018-04-14T11:44:34.909Z,23.58
2018-04-14T11:45:34.896Z,23.11
2018-04-14T11:46:34.929Z,23.53
2018-04-14T11:47:34.928Z,23.55
2018-04-14T11:48:34.949Z,22.99
2018-04-14T11:49:34.958Z,22.86
2018-04-14T11:50:34.985Z,21.74
2018-04-14T11:51:34.990Z,21.63
2018-04-14T11:52:35.007Z,21.81
2018-04-14T11:53:35.020Z,21.64
2018-04-14T11:54:35.046Z,21.79
2018-04-14T11:55:35.060Z,21.97
2018-04-14T11:56:35.075Z,22.29
2018-04-14T11:57:35.095Z,22.09
2018-04-14T11:58:35.114Z,22.99
2018-04-14T11:59:35.113Z,22.68
2018-04-14T12:00:35.121Z,23.31
2018-04-14T12:01:35.142Z,23.22
2018-04-14T12:02:35.155Z,22.74
2018-04-14T12:03:35.176Z,22.57
2018-04-14T12:04:35.181Z,23.35
2018-04-14T12:05:35.193Z,23.43
2018-04-14T12:06:35.213Z,23.58
2018-04-14T12:07:35.226Z,23.67
2018-04-14T12:08:35.241Z,23.68
2018-04-14T12:09:35.260Z,23.67
2018-04-14T12:10:35.284Z,22.59
2018-04-14T12:11:35.324Z,22.52
2018-04-14T12:12:35.295Z,23.02
2018-04-14T12:13:35.306Z,23.20
2018-04-14T12:14:35.321Z,22.90
2018-04-14T12:15:35.343Z,22.10
2018-04-14T12:16:35.362Z,22.38
2018-04-14T12:17:35.371Z,22.53
2018-04-14T12:18:35.380Z,22.57
2018-04-14T12:19:35.411Z,21.99
2018-04-14T12:20:35.428Z,21.79
2018-04-14T12:21:35.415Z,20.72
2018-04-14T12:22:35.456Z,20.50
2018-04-14T12:23:35.451Z,20.20
2018-04-14T12:24:35.467Z,20.33
2018-04-14T12:25:35.496Z,20.33
2018-04-14T12:26:35.488Z,20.30
2018-04-14T12:27:35.507Z,20.54
2018-04-14T12:28:35.518Z,20.53
2018-04-14T12:29:35.551Z,20.27
2018-04-14T12:30:35.531Z,20.09
2018-04-14T12:31:35.561Z,20.10
2018-04-14T12:32:35.579Z,19.76
2018-04-14T12:33:35.570Z,19.72
2018-04-14T12:34:35.639Z,19.88
2018-04-14T12:35:35.595Z,19.87
2018-04-14T12:36:35.585Z,19.95
2018-04-14T12:37:35.607Z,20.10
2018-04-14T12:38:35.610Z,20.13
2018-04-14T12:39:35.626Z,19.75
2018-04-14T12:40:35.630Z,19.83
2018-04-14T12:41:35.631Z,19.66
2018-04-14T12:42:35.640Z,19.60
2018-04-14T12:43:35.645Z,19.51
2018-04-14T12:44:35.655Z,19.60
2018-04-14T12:45:35.659Z,19.38
2018-04-14T12:46:35.653Z,19.54
2018-04-14T12:47:35.656Z,19.42
2018-04-14T12:48:35.650Z,19.57
2018-04-14T12:49:35.666Z,19.42
2018-04-14T12:50:35.658Z,19.47
2018-04-14T12:51:35.698Z,19.54
2018-04-14T12:52:35.680Z,19.38
2018-04-14T12:53:35.679Z,19.48
2018-04-14T12:54:35.689Z,19.63
2018-04-14T12:55:35.678Z,19.61
2018-04-14T12:56:37.547Z,19.66
2018-04-14T12:57:35.680Z,19.97
2018-04-14T12:58:35.688Z,19.42
2018-04-14T12:59:35.690Z,19.38
2018-04-14T13:00:35.687Z,19.23
2018-04-14T13:01:35.704Z,19.47
2018-04-14T13:02:35.694Z,19.38
2018-04-14T13:03:35.712Z,19.58
2018-04-14T13:04:35.698Z,19.46
2018-04-14T13:05:35.705Z,19.31
2018-04-14T13:06:35.712Z,19.23
2018-04-14T13:07:35.704Z,19.25
2018-04-14T13:08:35.711Z,19.28
2018-04-14T13:09:35.701Z,19.42
2018-04-14T13:10:35.726Z,19.39
2018-04-14T13:11:35.733Z,19.24
2018-04-14T13:12:35.752Z,19.25
2018-04-14T13:13:35.710Z,19.25
2018-04-14T13:14:35.712Z,19.28
2018-04-14T13:15:35.706Z,19.29
2018-04-14T13:16:35.737Z,19.31
2018-04-14T13:17:35.722Z,19.39
2018-04-14T13:18:35.712Z,19.40
2018-04-14T13:19:35.717Z,19.40
2018-04-14T13:20:35.724Z,19.46
2018-04-14T13:21:35.714Z,19.25
2018-04-14T13:22:35.715Z,19.20
2018-04-14T13:23:35.722Z,19.23
2018-04-14T13:24:35.717Z,19.29
2018-04-14T13:25:35.729Z,19.42
2018-04-14T13:26:35.730Z,19.42
2018-04-14T13:27:35.734Z,19.25
2018-04-14T13:28:35.725Z,19.23
2018-04-14T13:29:35.729Z,19.43
2018-04-14T13:30:35.722Z,19.43
2018-04-14T13:31:35.723Z,19.75
2018-04-14T13:32:35.720Z,19.80
2018-04-14T13:33:35.728Z,19.66
2018-04-14T13:34:35.722Z,19.83
2018-04-14T13:35:35.723Z,19.88
2018-04-14T13:36:35.728Z,19.73
2018-04-14T13:37:35.734Z,19.84
2018-04-14T13:38:35.724Z,19.87